Time;durP1;ratioP1;P1;durP2;ratioP2;P2;SDS_P1;SDS_P2;PMS_P1;PMS_P2;Temp;Humidity;BMP_temperature;BMP_pressure;BME280_temperature;BME280_humidity;BME280_pressure;Samples;Min_cycle;Max_cycle;Signal;HPM_P1;HPM_P2
2023/06/11 00:00:16;;;;;;;10.02;3.42;;;;;;;;;;12977609;19;20440;-66
2023/06/11 00:04:57;;;;;;;3.70;2.60;;;;;;;;;;12978677;19;20003;-67
2023/06/11 00:09:15;;;;;;;4.40;2.90;;;;;;;;;;12989918;19;20042;-67
2023/06/11 00:13:33;;;;;;;3.50;2.80;;;;;;;;;;12990589;19;20022;-66
2023/06/11 00:17:53;;;;;;;4.40;2.78;;;;;;;;;;12989769;19;20025;-66
2023/06/11 00:22:12;;;;;;;3.17;2.55;;;;;;;;;;12988427;19;20020;-66
2023/06/11 00:26:33;;;;;;;3.58;2.92;;;;;;;;;;12989127;19;20076;-65
2023/06/11 00:30:51;;;;;;;5.07;3.05;;;;;;;;;;12989658;19;20696;-67
2023/06/11 00:35:09;;;;;;;5.90;2.90;;;;;;;;;;12988536;19;20355;-66
2023/06/11 00:39:28;;;;;;;4.38;3.10;;;;;;;;;;12988543;19;20015;-65
2023/06/11 00:43:48;;;;;;;5.30;3.72;;;;;;;;;;12988123;19;20014;-66
2023/06/11 00:48:08;;;;;;;5.10;3.45;;;;;;;;;;12987653;19;20342;-66
2023/06/11 00:52:26;;;;;;;6.57;3.65;;;;;;;;;;12989440;19;20020;-67
2023/06/11 00:56:44;;;;;;;4.05;3.25;;;;;;;;;;12988401;19;20393;-67
2023/06/11 01:01:05;;;;;;;4.90;3.50;;;;;;;;;;12986538;19;20023;-67
2023/06/11 01:05:25;;;;;;;7.43;4.65;;;;;;;;;;12989284;19;20380;-67
2023/06/11 01:09:45;;;;;;;5.68;3.95;;;;;;;;;;12985635;19;20015;-67
2023/06/11 01:14:03;;;;;;;4.13;3.20;;;;;;;;;;12986148;19;20014;-66
2023/06/11 01:18:28;;;;;;;6.65;3.85;;;;;;;;;;12984893;19;20030;-66
2023/06/11 01:23:00;;;;;;;6.93;3.85;;;;;;;;;;12986752;19;20469;-67
2023/06/11 01:27:43;;;;;;;5.30;4.30;;;;;;;;;;12986224;19;20018;-69
2023/06/11 01:32:02;;;;;;;6.60;3.78;;;;;;;;;;12984704;19;20035;-66
2023/06/11 01:36:24;;;;;;;6.57;4.13;;;;;;;;;;12985253;19;20029;-67
2023/06/11 01:40:41;;;;;;;5.20;3.00;;;;;;;;;;12984685;19;20026;-69
2023/06/11 01:45:00;;;;;;;7.90;3.97;;;;;;;;;;12985352;19;20607;-67
2023/06/11 01:49:17;;;;;;;5.53;4.25;;;;;;;;;;12983380;19;20026;-68
2023/06/11 01:53:36;;;;;;;5.35;4.25;;;;;;;;;;12985958;19;20019;-67
2023/06/11 01:57:53;;;;;;;5.25;3.65;;;;;;;;;;12985300;19;20018;-67
2023/06/11 02:02:12;;;;;;;6.07;4.63;;;;;;;;;;12985016;19;20015;-68
2023/06/11 02:06:30;;;;;;;7.00;4.97;;;;;;;;;;12985082;19;20674;-67
2023/06/11 02:10:48;;;;;;;6.28;4.57;;;;;;;;;;12984437;19;20512;-67
2023/06/11 02:15:07;;;;;;;5.85;4.18;;;;;;;;;;12983645;19;20473;-67
2023/06/11 02:19:25;;;;;;;7.25;4.80;;;;;;;;;;12983689;19;20017;-67
2023/06/11 02:23:43;;;;;;;5.47;4.03;;;;;;;;;;12983252;19;20014;-67
2023/06/11 02:28:05;;;;;;;4.85;3.60;;;;;;;;;;12980893;19;20014;-67
2023/06/11 02:32:23;;;;;;;8.20;4.82;;;;;;;;;;12983455;19;21065;-69
2023/06/11 02:36:41;;;;;;;;;;;;;;;;;;12983408;19;20010;-66
2023/06/11 02:40:58;;;;;;;5.60;4.18;;;;;;;;;;12981827;19;19918;-67
2023/06/11 02:45:17;;;;;;;6.25;4.10;;;;;;;;;;12982618;19;20025;-67
2023/06/11 02:49:35;;;;;;;5.80;4.20;;;;;;;;;;12983445;19;20022;-67
2023/06/11 02:53:54;;;;;;;6.03;4.53;;;;;;;;;;12983729;19;20018;-66
2023/06/11 02:58:13;;;;;;;6.70;4.68;;;;;;;;;;12981313;19;20014;-65
2023/06/11 03:02:31;;;;;;;;;;;;;;;;;;12982891;19;20015;-66
2023/06/11 03:06:48;;;;;;;9.60;3.63;;;;;;;;;;12981914;19;19923;-66
2023/06/11 03:11:07;;;;;;;10.20;2.85;;;;;;;;;;12977925;19;20014;-66
2023/06/11 03:15:24;;;;;;;;;;;;;;;;;;12982317;19;20011;-66
2023/06/11 03:19:42;;;;;;;7.03;4.25;;;;;;;;;;12980505;19;19926;-67
2023/06/11 03:24:00;;;;;;;5.32;3.50;;;;;;;;;;12980961;19;20037;-68
2023/06/11 03:28:19;;;;;;;5.97;3.53;;;;;;;;;;12980108;19;20006;-67
2023/06/11 03:32:39;;;;;;;4.28;3.53;;;;;;;;;;12980844;19;20033;-66
2023/06/11 03:36:59;;;;;;;8.68;3.92;;;;;;;;;;12980831;19;20025;-66
2023/06/11 03:41:16;;;;;;;6.00;4.05;;;;;;;;;;12983831;19;20014;-66
2023/06/11 03:45:34;;;;;;;;;;;;;;;;;;12993640;19;20813;-67
2023/06/11 03:49:52;;;;;;;6.15;4.32;;;;;;;;;;12992530;19;19922;-67
2023/06/11 03:54:10;;;;;;;6.28;4.07;;;;;;;;;;12990962;19;20018;-66
2023/06/11 03:58:28;;;;;;;6.40;2.42;;;;;;;;;;12990509;19;20377;-66
2023/06/11 04:02:46;;;;;;;4.53;3.42;;;;;;;;;;12990809;19;20046;-66
2023/06/11 04:07:05;;;;;;;7.43;3.88;;;;;;;;;;12991223;19;20380;-66
2023/06/11 04:11:22;;;;;;;6.15;3.40;;;;;;;;;;12990855;19;20474;-67
2023/06/11 04:15:40;;;;;;;5.07;3.70;;;;;;;;;;12990476;19;20014;-67
2023/06/11 04:19:59;;;;;;;8.50;4.70;;;;;;;;;;12989902;19;20023;-67
2023/06/11 04:24:18;;;;;;;5.32;3.78;;;;;;;;;;12987567;19;20482;-67
2023/06/11 04:28:37;;;;;;;5.00;4.05;;;;;;;;;;12989933;19;20025;-67
2023/06/11 04:32:55;;;;;;;;;;;;;;;;;;12988546;19;20025;-66
2023/06/11 04:37:15;;;;;;;5.35;3.65;;;;;;;;;;12989212;19;19919;-66
2023/06/11 04:41:36;;;;;;;5.68;4.07;;;;;;;;;;12987778;19;20014;-66
2023/06/11 04:45:55;;;;;;;4.70;3.90;;;;;;;;;;12989503;19;20010;-67
2023/06/11 04:50:20;;;;;;;5.80;3.45;;;;;;;;;;12988435;19;20014;-66
2023/06/11 04:54:41;;;;;;;3.58;3.17;;;;;;;;;;12987754;19;20021;-67
2023/06/11 04:59:01;;;;;;;5.75;3.75;;;;;;;;;;12987345;19;20019;-66
2023/06/11 05:03:21;;;;;;;4.03;3.47;;;;;;;;;;12988020;19;20520;-66
2023/06/11 05:07:39;;;;;;;6.38;3.60;;;;;;;;;;12987476;19;20022;-67
2023/06/11 05:11:58;;;;;;;3.78;3.03;;;;;;;;;;12987208;19;20015;-67
2023/06/11 05:16:21;;;;;;;5.25;3.35;;;;;;;;;;12986422;19;20021;-67
2023/06/11 05:20:39;;;;;;;3.80;2.88;;;;;;;;;;12986256;19;20048;-66
2023/06/11 05:24:57;;;;;;;6.85;3.65;;;;;;;;;;12986666;19;20014;-66
2023/06/11 05:29:16;;;;;;;5.32;2.85;;;;;;;;;;12986153;19;20477;-67
2023/06/11 05:33:34;;;;;;;5.53;3.60;;;;;;;;;;12986899;19;20010;-66
2023/06/11 05:37:52;;;;;;;4.60;3.35;;;;;;;;;;12986749;19;20018;-67
2023/06/11 05:42:10;;;;;;;4.00;3.30;;;;;;;;;;12985356;19;20015;-67
2023/06/11 05:46:28;;;;;;;5.40;2.95;;;;;;;;;;12987608;19;20018;-67
2023/06/11 05:50:46;;;;;;;;;;;;;;;;;;12987644;19;20006;-67
2023/06/11 05:55:06;;;;;;;5.20;2.75;;;;;;;;;;12985437;19;19915;-68
2023/06/11 05:59:24;;;;;;;4.13;2.85;;;;;;;;;;12984941;19;20017;-67
2023/06/11 06:03:42;;;;;;;5.45;3.40;;;;;;;;;;12983204;19;20010;-67
2023/06/11 06:08:02;;;;;;;6.18;3.15;;;;;;;;;;12984444;19;20028;-67
2023/06/11 06:12:20;;;;;;;4.00;2.42;;;;;;;;;;12984597;19;20021;-67
2023/06/11 06:16:38;;;;;;;6.63;3.13;;;;;;;;;;12984786;19;20022;-67
2023/06/11 06:20:56;;;;;;;3.20;2.65;;;;;;;;;;12983471;19;20030;-68
2023/06/11 06:25:15;;;;;;;12.23;4.00;;;;;;;;;;12984313;19;20018;-68
2023/06/11 06:29:38;;;;;;;3.78;2.53;;;;;;;;;;12984333;19;20022;-66
2023/06/11 06:33:56;;;;;;;4.55;2.97;;;;;;;;;;12984769;19;20031;-67
2023/06/11 06:38:14;;;;;;;7.18;3.70;;;;;;;;;;12981776;19;20018;-67
2023/06/11 06:42:33;;;;;;;4.03;3.00;;;;;;;;;;12983529;19;20864;-67
2023/06/11 06:46:53;;;;;;;4.28;3.08;;;;;;;;;;12983762;19;20019;-68
2023/06/11 06:51:12;;;;;;;7.05;3.42;;;;;;;;;;12982602;19;20025;-67
2023/06/11 06:55:30;;;;;;;3.75;2.58;;;;;;;;;;12982916;19;20038;-68
2023/06/11 06:59:48;;;;;;;3.85;3.13;;;;;;;;;;12981839;19;20019;-67
2023/06/11 07:04:06;;;;;;;3.63;3.25;;;;;;;;;;12981759;19;20014;-68
2023/06/11 07:08:24;;;;;;;5.25;2.85;;;;;;;;;;12982245;19;20006;-67
2023/06/11 07:12:41;;;;;;;;;;;;;;;;;;12982927;19;20472;-67
2023/06/11 07:16:59;;;;;;;;;;;;;;;;;;12991923;19;19929;-68
2023/06/11 07:21:17;;;;;;;3.70;2.70;;;;;;;;;;12993880;19;19918;-68
2023/06/11 07:25:37;;;;;;;4.20;2.70;;;;;;;;;;12995238;19;20663;-68
2023/06/11 07:29:57;;;;;;;6.68;3.28;;;;;;;;;;12994649;19;20017;-68
2023/06/11 07:34:15;;;;;;;5.68;2.65;;;;;;;;;;12993735;19;20025;-68
2023/06/11 07:38:33;;;;;;;3.75;2.95;;;;;;;;;;12991190;19;20082;-67
2023/06/11 07:42:52;;;;;;;3.28;2.70;;;;;;;;;;12992451;19;20015;-68
2023/06/11 07:47:09;;;;;;;4.57;2.42;;;;;;;;;;12993742;19;20022;-67
2023/06/11 07:51:28;;;;;;;4.88;2.72;;;;;;;;;;12993651;19;20014;-67
2023/06/11 07:55:47;;;;;;;4.40;2.75;;;;;;;;;;12992842;19;20018;-67
2023/06/11 08:00:12;;;;;;;4.85;2.08;;;;;;;;;;12990566;19;20021;-68
2023/06/11 08:04:32;;;;;;;4.53;3.05;;;;;;;;;;12991931;19;20028;-68
2023/06/11 08:08:50;;;;;;;6.05;2.38;;;;;;;;;;12991941;19;20781;-68
2023/06/11 08:13:08;;;;;;;4.00;2.80;;;;;;;;;;12990819;19;20019;-68
2023/06/11 08:17:25;;;;;;;3.10;2.13;;;;;;;;;;12992694;19;20018;-68
2023/06/11 08:21:44;;;;;;;8.18;3.13;;;;;;;;;;12991093;19;20501;-67
2023/06/11 08:26:02;;;;;;;7.15;2.30;;;;;;;;;;12988718;19;20485;-68
2023/06/11 08:30:21;;;;;;;4.40;2.22;;;;;;;;;;12991662;19;20018;-68
2023/06/11 08:34:40;;;;;;;4.28;2.75;;;;;;;;;;12990774;19;20037;-67
2023/06/11 08:38:57;;;;;;;1.40;0.82;;;;;;;;;;12990094;19;20014;-68
2023/06/11 08:43:16;;;;;;;2.90;2.00;;;;;;;;;;12989211;19;20019;-68
2023/06/11 08:47:39;;;;;;;2.20;1.73;;;;;;;;;;12989904;19;20010;-68
2023/06/11 08:52:03;;;;;;;2.92;2.03;;;;;;;;;;12988090;19;20018;-67
2023/06/11 08:56:22;;;;;;;3.38;2.15;;;;;;;;;;12989151;19;20053;-67
2023/06/11 09:00:41;;;;;;;3.10;2.30;;;;;;;;;;12989019;19;20006;-68
2023/06/11 09:05:03;;;;;;;1.35;1.10;;;;;;;;;;12988344;19;20023;-70
2023/06/11 09:09:22;;;;;;;5.93;3.00;;;;;;;;;;12989021;19;20023;-65
2023/06/11 09:13:40;;;;;;;3.38;2.30;;;;;;;;;;12986503;19;20479;-65
2023/06/11 09:18:00;;;;;;;;;;;;;;;;;;12989750;19;20377;-65
2023/06/11 09:22:26;;;;;;;7.05;2.60;;;;;;;;;;12987472;19;20266;-64
2023/06/11 09:26:56;;;;;;;3.33;2.25;;;;;;;;;;12986384;19;20433;-65
2023/06/11 09:31:19;;;;;;;4.35;2.33;;;;;;;;;;12987425;19;20472;-64
2023/06/11 09:35:44;;;;;;;3.80;2.58;;;;;;;;;;12985277;19;20031;-65
2023/06/11 09:40:02;;;;;;;2.22;1.73;;;;;;;;;;12986621;19;20116;-65
2023/06/11 09:44:23;;;;;;;3.25;2.10;;;;;;;;;;12986103;19;20007;-65
2023/06/11 09:48:41;;;;;;;6.43;2.58;;;;;;;;;;12986559;19;20030;-65
2023/06/11 09:53:04;;;;;;;3.70;2.58;;;;;;;;;;12984457;19;20034;-65
2023/06/11 09:57:24;;;;;;;5.90;2.85;;;;;;;;;;12985094;19;20454;-65
2023/06/11 10:01:46;;;;;;;3.38;2.05;;;;;;;;;;12985571;19;20014;-65
2023/06/11 10:06:12;;;;;;;12.30;2.95;;;;;;;;;;12984980;19;20018;-64
2023/06/11 10:10:38;;;;;;;1.52;1.33;;;;;;;;;;12984252;19;20028;-65
2023/06/11 10:14:57;;;;;;;3.35;2.45;;;;;;;;;;12983427;19;20051;-65
2023/06/11 10:19:16;;;;;;;4.28;2.40;;;;;;;;;;12982064;19;20026;-65
2023/06/11 10:23:51;;;;;;;5.68;1.95;;;;;;;;;;12984075;19;20727;-65
2023/06/11 10:28:09;;;;;;;2.10;1.63;;;;;;;;;;12983379;19;20018;-65
2023/06/11 10:32:29;;;;;;;3.70;2.30;;;;;;;;;;12983048;19;20014;-65
2023/06/11 10:36:47;;;;;;;7.85;2.42;;;;;;;;;;12983209;19;20014;-65
2023/06/11 10:41:05;;;;;;;4.85;2.20;;;;;;;;;;12980747;19;20037;-65
2023/06/11 10:45:38;;;;;;;2.50;1.90;;;;;;;;;;12982930;19;20030;-65
2023/06/11 10:50:31;;;;;;;2.13;1.80;;;;;;;;;;12981179;19;20029;-65
2023/06/11 10:54:50;;;;;;;5.22;1.95;;;;;;;;;;12981909;19;20085;-65
2023/06/11 10:59:09;;;;;;;4.53;2.05;;;;;;;;;;12980366;19;20031;-65
2023/06/11 11:03:30;;;;;;;3.90;2.20;;;;;;;;;;12982668;19;20018;-65
2023/06/11 11:07:49;;;;;;;8.63;3.35;;;;;;;;;;12982255;19;20018;-64
2023/06/11 11:12:10;;;;;;;4.10;2.13;;;;;;;;;;12981388;19;20019;-65
2023/06/11 11:16:28;;;;;;;2.55;1.75;;;;;;;;;;12981137;19;20010;-65
2023/06/11 11:20:47;;;;;;;4.38;2.15;;;;;;;;;;12981068;19;20006;-65
2023/06/11 11:25:07;;;;;;;5.85;2.15;;;;;;;;;;12979861;19;20015;-64
2023/06/11 11:29:25;;;;;;;7.55;2.30;;;;;;;;;;12980689;19;20026;-65
2023/06/11 11:33:45;;;;;;;3.28;1.60;;;;;;;;;;12978442;19;20010;-65
2023/06/11 11:38:03;;;;;;;3.33;1.85;;;;;;;;;;12979476;19;20010;-65
2023/06/11 11:42:23;;;;;;;2.42;1.80;;;;;;;;;;12979332;19;20417;-65
2023/06/11 11:46:41;;;;;;;2.95;2.00;;;;;;;;;;12981400;19;20103;-65
2023/06/11 11:51:05;;;;;;;2.42;1.77;;;;;;;;;;12980209;19;20025;-65
2023/06/11 11:55:25;;;;;;;4.03;2.38;;;;;;;;;;12979856;19;20010;-65
2023/06/11 11:59:43;;;;;;;2.97;2.08;;;;;;;;;;12978832;19;20015;-65
2023/06/11 12:04:02;;;;;;;3.10;2.13;;;;;;;;;;12986590;19;20029;-65
2023/06/11 12:08:22;;;;;;;4.28;2.30;;;;;;;;;;12991391;19;20362;-65
2023/06/11 12:12:40;;;;;;;2.95;1.73;;;;;;;;;;12991286;19;20014;-65
2023/06/11 12:16:59;;;;;;;5.10;1.52;;;;;;;;;;12990809;19;20021;-65
2023/06/11 12:21:17;;;;;;;3.08;1.63;;;;;;;;;;12987638;19;20019;-65
2023/06/11 12:25:35;;;;;;;1.55;1.25;;;;;;;;;;12988055;19;20078;-64
2023/06/11 12:29:53;;;;;;;3.20;2.20;;;;;;;;;;12990485;19;20492;-64
2023/06/11 12:34:15;;;;;;;3.67;2.20;;;;;;;;;;12989213;19;20017;-65
2023/06/11 12:38:32;;;;;;;3.25;1.98;;;;;;;;;;12990255;19;20010;-65
2023/06/11 12:42:56;;;;;;;3.42;1.60;;;;;;;;;;12989710;19;20465;-65
2023/06/11 12:47:16;;;;;;;1.95;1.42;;;;;;;;;;12989666;19;20011;-65
2023/06/11 12:51:36;;;;;;;2.60;1.95;;;;;;;;;;12989203;19;20469;-64
2023/06/11 12:55:54;;;;;;;4.18;1.70;;;;;;;;;;12988437;19;20029;-64
2023/06/11 13:00:14;;;;;;;4.97;1.83;;;;;;;;;;12987247;19;20015;-64
2023/06/11 13:04:32;;;;;;;2.20;1.40;;;;;;;;;;12987250;19;20025;-64
2023/06/11 13:08:51;;;;;;;4.03;1.80;;;;;;;;;;12987643;19;20015;-64
2023/06/11 13:13:09;;;;;;;4.70;1.60;;;;;;;;;;12986249;19;20042;-66
2023/06/11 13:17:28;;;;;;;3.92;1.80;;;;;;;;;;12987652;19;20128;-63
2023/06/11 13:21:46;;;;;;;2.38;1.10;;;;;;;;;;12985145;19;20019;-64
2023/06/11 13:26:04;;;;;;;3.35;1.67;;;;;;;;;;12986256;19;20019;-64
2023/06/11 13:30:22;;;;;;;2.72;1.50;;;;;;;;;;12987794;19;20030;-64
2023/06/11 13:34:40;;;;;;;3.15;1.70;;;;;;;;;;12987662;19;20038;-64
2023/06/11 13:38:58;;;;;;;2.20;1.50;;;;;;;;;;12986851;19;20014;-64
2023/06/11 13:43:17;;;;;;;2.33;1.70;;;;;;;;;;12984736;19;20014;-64
2023/06/11 13:47:35;;;;;;;2.10;1.48;;;;;;;;;;12986107;19;20502;-63
2023/06/11 13:51:54;;;;;;;1.75;1.50;;;;;;;;;;12986742;19;20021;-63
2023/06/11 13:56:11;;;;;;;2.20;1.50;;;;;;;;;;12984608;19;20014;-64
2023/06/11 14:00:30;;;;;;;5.07;1.60;;;;;;;;;;12984701;19;20021;-64
2023/06/11 14:04:51;;;;;;;2.60;1.55;;;;;;;;;;12984996;19;20015;-64
2023/06/11 14:09:10;;;;;;;2.70;1.60;;;;;;;;;;12984155;19;20015;-64
2023/06/11 14:13:27;;;;;;;4.80;1.52;;;;;;;;;;12984615;19;20378;-64
2023/06/11 14:17:46;;;;;;;1.77;1.50;;;;;;;;;;12984612;19;20022;-63
2023/06/11 14:22:04;;;;;;;2.92;1.58;;;;;;;;;;12983525;19;20357;-64
2023/06/11 14:26:24;;;;;;;1.15;1.00;;;;;;;;;;12982470;19;20030;-63
2023/06/11 14:30:42;;;;;;;1.77;1.35;;;;;;;;;;12983643;19;20019;-63
2023/06/11 14:35:01;;;;;;;4.07;1.70;;;;;;;;;;12983321;19;20017;-64
2023/06/11 14:39:19;;;;;;;3.60;1.30;;;;;;;;;;12980973;19;20014;-63
2023/06/11 14:43:37;;;;;;;1.67;1.30;;;;;;;;;;12981574;19;20015;-63
2023/06/11 14:47:55;;;;;;;4.28;1.50;;;;;;;;;;12983049;19;20463;-64
2023/06/11 14:52:16;;;;;;;3.42;2.00;;;;;;;;;;12981909;19;20509;-64
2023/06/11 14:56:33;;;;;;;;;;;;;;;;;;12982791;19;20006;-64
2023/06/11 15:00:51;;;;;;;;;;;;;;;;;;12982686;19;19927;-64
2023/06/11 15:05:10;;;;;;;2.92;1.65;;;;;;;;;;12981916;19;19919;-63
2023/06/11 15:09:27;;;;;;;;;;;;;;;;;;12982999;19;20018;-63
2023/06/11 15:13:45;;;;;;;;;;;;;;;;;;12980324;19;20374;-64
2023/06/11 15:18:04;;;;;;;;;;;;;;;;;;12981285;19;19919;-63
2023/06/11 15:22:23;;;;;;;2.83;2.03;;;;;;;;;;12978388;19;19938;-63
2023/06/11 15:26:41;;;;;;;3.38;2.00;;;;;;;;;;12980971;19;20025;-63
2023/06/11 15:30:59;;;;;;;;;;;;;;;;;;12978544;19;20036;-63
2023/06/11 15:35:18;;;;;;;3.58;1.65;;;;;;;;;;12981668;19;19946;-63
2023/06/11 15:39:35;;;;;;;5.10;1.90;;;;;;;;;;12993329;19;20014;-63
2023/06/11 15:43:55;;;;;;;3.13;1.98;;;;;;;;;;12991190;19;20018;-63
2023/06/11 15:48:15;;;;;;;2.47;1.80;;;;;;;;;;12992242;19;20025;-64
2023/06/11 15:52:34;;;;;;;5.13;2.00;;;;;;;;;;12992591;19;20355;-64
2023/06/11 15:56:52;;;;;;;2.40;1.52;;;;;;;;;;12992203;19;20011;-63
2023/06/11 16:01:10;;;;;;;3.97;1.73;;;;;;;;;;12987515;19;20379;-64
2023/06/11 16:05:32;;;;;;;3.65;1.52;;;;;;;;;;12991571;19;20038;-63
2023/06/11 16:09:50;;;;;;;2.10;1.42;;;;;;;;;;12992084;19;20127;-63
2023/06/11 16:14:07;;;;;;;;;;;;;;;;;;12991455;19;20025;-63
2023/06/11 16:18:25;;;;;;;2.08;1.45;;;;;;;;;;12991052;19;19922;-63
2023/06/11 16:22:44;;;;;;;4.05;2.00;;;;;;;;;;12989872;19;20111;-63
2023/06/11 16:27:03;;;;;;;4.65;2.05;;;;;;;;;;12988928;19;20022;-63
2023/06/11 16:31:21;;;;;;;3.88;1.92;;;;;;;;;;12989528;19;20334;-63
2023/06/11 16:35:40;;;;;;;4.15;1.70;;;;;;;;;;12986512;19;20018;-63
2023/06/11 16:39:58;;;;;;;2.92;1.50;;;;;;;;;;12989162;19;20532;-63
2023/06/11 16:44:16;;;;;;;2.40;1.38;;;;;;;;;;12987671;19;20031;-63
2023/06/11 16:48:33;;;;;;;;;;;;;;;;;;12988235;19;20343;-63
2023/06/11 16:52:53;;;;;;;2.00;1.45;;;;;;;;;;12988602;19;19934;-63
2023/06/11 16:57:10;;;;;;;2.10;1.60;;;;;;;;;;12988262;19;20019;-63
2023/06/11 17:01:28;;;;;;;4.72;1.70;;;;;;;;;;12987066;19;20025;-63
2023/06/11 17:05:46;;;;;;;3.35;1.98;;;;;;;;;;12987045;19;20014;-63
2023/06/11 17:10:06;;;;;;;3.05;1.60;;;;;;;;;;12987012;19;20014;-64
2023/06/11 17:14:24;;;;;;;1.52;1.17;;;;;;;;;;12987914;19;20010;-63
2023/06/11 17:18:42;;;;;;;;;;;;;;;;;;12987741;19;20018;-63
2023/06/11 17:23:01;;;;;;;3.22;1.52;;;;;;;;;;12986873;19;20843;-63
2023/06/11 17:27:19;;;;;;;2.28;1.48;;;;;;;;;;12987183;19;20019;-63
2023/06/11 17:31:37;;;;;;;1.90;1.40;;;;;;;;;;12987422;19;20018;-63
2023/06/11 17:35:56;;;;;;;2.05;1.65;;;;;;;;;;12986357;19;20023;-63
2023/06/11 17:40:14;;;;;;;2.70;1.80;;;;;;;;;;12985979;19;20011;-63
2023/06/11 17:44:34;;;;;;;3.55;2.03;;;;;;;;;;12985641;19;20038;-63
2023/06/11 17:48:53;;;;;;;3.42;2.05;;;;;;;;;;12985124;19;20010;-63
2023/06/11 17:53:11;;;;;;;3.25;2.08;;;;;;;;;;12985171;19;20045;-63
2023/06/11 17:57:29;;;;;;;3.00;1.92;;;;;;;;;;12984968;19;20017;-63
2023/06/11 18:01:48;;;;;;;3.40;2.25;;;;;;;;;;12981433;19;20018;-63
2023/06/11 18:06:06;;;;;;;;;;;;;;;;;;12984450;19;20011;-63
2023/06/11 18:10:25;;;;;;;2.90;1.73;;;;;;;;;;12985359;19;20284;-63
2023/06/11 18:14:43;;;;;;;9.63;2.10;;;;;;;;;;12984962;19;20033;-62
2023/06/11 18:19:02;;;;;;;6.60;1.92;;;;;;;;;;12984343;19;20014;-64
2023/06/11 18:23:20;;;;;;;2.53;1.48;;;;;;;;;;12983402;19;20381;-63
2023/06/11 18:27:39;;;;;;;2.15;1.50;;;;;;;;;;12983868;19;20039;-63
2023/06/11 18:31:58;;;;;;;3.08;1.90;;;;;;;;;;12983059;19;20031;-64
2023/06/11 18:36:18;;;;;;;3.50;2.08;;;;;;;;;;12982966;19;20089;-63
2023/06/11 18:40:36;;;;;;;6.40;1.42;;;;;;;;;;12982262;19;20014;-63
2023/06/11 18:44:53;;;;;;;9.10;1.73;;;;;;;;;;12983030;19;20017;-62
2023/06/11 18:49:12;;;;;;;1.85;1.45;;;;;;;;;;12982201;19;20037;-63
2023/06/11 18:53:30;;;;;;;4.65;1.95;;;;;;;;;;12982537;19;20455;-63
2023/06/11 18:57:48;;;;;;;3.28;1.77;;;;;;;;;;12982229;19;20382;-62
2023/06/11 19:02:07;;;;;;;8.60;2.00;;;;;;;;;;12981804;19;20010;-62
2023/06/11 19:06:25;;;;;;;7.63;2.90;;;;;;;;;;12981520;19;20611;-62
2023/06/11 19:10:47;;;;;;;3.40;1.83;;;;;;;;;;12983784;19;20006;-63
2023/06/11 19:15:06;;;;;;;5.43;2.03;;;;;;;;;;12993511;19;20025;-63
2023/06/11 19:19:26;;;;;;;1.77;1.35;;;;;;;;;;12992817;19;20049;-63
2023/06/11 19:23:44;;;;;;;;;;;;;;;;;;12993470;19;20262;-63
2023/06/11 19:28:03;;;;;;;5.53;2.35;;;;;;;;;;12992425;19;19919;-63
2023/06/11 19:32:25;;;;;;;4.53;2.28;;;;;;;;;;12993069;19;21102;-63
2023/06/11 19:36:43;;;;;;;3.58;1.95;;;;;;;;;;12992509;19;20339;-63
2023/06/11 19:41:01;;;;;;;2.80;1.50;;;;;;;;;;12990634;19;20014;-65
2023/06/11 19:45:20;;;;;;;3.33;1.77;;;;;;;;;;12993127;19;20010;-63
2023/06/11 19:49:40;;;;;;;4.50;1.55;;;;;;;;;;12992765;19;20015;-63
2023/06/11 19:53:59;;;;;;;5.82;1.63;;;;;;;;;;12991584;19;20031;-62
2023/06/11 19:58:18;;;;;;;3.28;1.80;;;;;;;;;;12991007;19;20018;-62
2023/06/11 20:02:35;;;;;;;4.15;1.70;;;;;;;;;;12991238;19;20017;-62
2023/06/11 20:06:55;;;;;;;3.67;1.77;;;;;;;;;;12991155;19;20530;-63
2023/06/11 20:11:17;;;;;;;2.40;1.52;;;;;;;;;;12989999;19;20031;-63
2023/06/11 20:15:35;;;;;;;1.58;1.38;;;;;;;;;;12990092;19;20107;-63
2023/06/11 20:19:53;;;;;;;3.67;1.75;;;;;;;;;;12988153;19;20023;-63
2023/06/11 20:24:11;;;;;;;2.03;1.67;;;;;;;;;;12985450;19;20504;-63
2023/06/11 20:28:30;;;;;;;3.97;1.95;;;;;;;;;;12989888;19;20010;-62
2023/06/11 20:32:47;;;;;;;;;;;;;;;;;;12990624;19;20019;-63
2023/06/11 20:37:05;;;;;;;4.25;1.60;;;;;;;;;;12988663;19;19918;-63
2023/06/11 20:41:23;;;;;;;;;;;;;;;;;;12988777;19;20014;-63
2023/06/11 20:45:41;;;;;;;3.42;1.52;;;;;;;;;;12989831;19;19915;-62
2023/06/11 20:50:14;;;;;;;2.72;1.63;;;;;;;;;;12989263;19;20099;-63
2023/06/11 20:54:32;;;;;;;3.00;1.50;;;;;;;;;;12989142;19;20710;-63
2023/06/11 20:58:51;;;;;;;2.25;1.27;;;;;;;;;;12988211;19;20010;-63
2023/06/11 21:03:08;;;;;;;2.67;1.75;;;;;;;;;;12986322;19;20010;-63
2023/06/11 21:07:27;;;;;;;2.50;1.63;;;;;;;;;;12987197;19;20014;-63
2023/06/11 21:11:45;;;;;;;2.55;1.55;;;;;;;;;;12987737;19;20418;-63
2023/06/11 21:16:03;;;;;;;3.47;1.73;;;;;;;;;;12986598;19;20021;-63
2023/06/11 21:20:21;;;;;;;2.60;1.60;;;;;;;;;;12987225;19;20030;-62
2023/06/11 21:24:39;;;;;;;2.22;1.70;;;;;;;;;;12985799;19;20014;-62
2023/06/11 21:28:58;;;;;;;4.30;1.75;;;;;;;;;;12987037;19;20341;-62
2023/06/11 21:33:16;;;;;;;1.60;1.30;;;;;;;;;;12986392;19;20046;-63
2023/06/11 21:37:35;;;;;;;2.25;1.67;;;;;;;;;;12986748;19;20018;-63
2023/06/11 21:41:52;;;;;;;1.92;1.63;;;;;;;;;;12983456;19;20015;-62
2023/06/11 21:46:10;;;;;;;3.45;1.42;;;;;;;;;;12984820;19;20006;-62
2023/06/11 21:50:29;;;;;;;2.53;1.70;;;;;;;;;;12985740;19;20011;-62
2023/06/11 21:54:49;;;;;;;2.15;1.80;;;;;;;;;;12985356;19;20497;-62
2023/06/11 21:59:06;;;;;;;3.63;1.70;;;;;;;;;;12983656;19;20484;-63
2023/06/11 22:03:26;;;;;;;2.97;1.92;;;;;;;;;;12983588;19;20006;-63
2023/06/11 22:07:44;;;;;;;2.72;1.55;;;;;;;;;;12984389;19;20014;-62
2023/06/11 22:12:04;;;;;;;2.20;1.42;;;;;;;;;;12984038;19;20013;-64
2023/06/11 22:16:22;;;;;;;4.30;1.48;;;;;;;;;;12985355;19;20041;-62
2023/06/11 22:20:41;;;;;;;12.43;1.92;;;;;;;;;;12985036;19;20011;-62
2023/06/11 22:25:00;;;;;;;3.38;2.00;;;;;;;;;;12968109;19;20018;-62
2023/06/11 22:29:18;;;;;;;3.13;2.28;;;;;;;;;;12982470;19;20013;-63
2023/06/11 22:33:36;;;;;;;1.85;1.48;;;;;;;;;;12982908;19;20018;-63
2023/06/11 22:37:54;;;;;;;3.78;1.98;;;;;;;;;;12981923;19;20562;-62
2023/06/11 22:42:11;;;;;;;;;;;;;;;;;;12981097;19;20011;-63
2023/06/11 22:46:31;;;;;;;2.17;1.52;;;;;;;;;;12980939;19;19919;-63
2023/06/11 22:50:48;;;;;;;5.22;2.13;;;;;;;;;;12982144;19;20021;-63
2023/06/11 22:55:09;;;;;;;;;;;;;;;;;;12981314;19;20028;-62
2023/06/11 22:59:28;;;;;;;5.30;1.90;;;;;;;;;;12982526;19;20882;-63
2023/06/11 23:03:46;;;;;;;2.92;1.83;;;;;;;;;;12980218;19;20007;-62
2023/06/11 23:08:04;;;;;;;6.22;1.80;;;;;;;;;;12980574;19;20497;-63
2023/06/11 23:12:22;;;;;;;2.38;1.70;;;;;;;;;;12981510;19;20022;-62
2023/06/11 23:16:42;;;;;;;3.78;2.08;;;;;;;;;;12981302;19;20046;-63
2023/06/11 23:21:03;;;;;;;2.00;1.60;;;;;;;;;;12979952;19;20023;-63
2023/06/11 23:25:26;;;;;;;5.10;1.63;;;;;;;;;;12979472;19;20492;-62
2023/06/11 23:29:44;;;;;;;2.20;1.88;;;;;;;;;;12980687;19;20758;-62
2023/06/11 23:34:02;;;;;;;1.63;1.38;;;;;;;;;;12978896;19;20037;-62
2023/06/11 23:38:19;;;;;;;4.40;1.58;;;;;;;;;;12979383;19;20014;-62
2023/06/11 23:42:39;;;;;;;2.33;1.65;;;;;;;;;;12978243;19;20017;-61
2023/06/11 23:46:57;;;;;;;2.50;1.67;;;;;;;;;;12979219;19;20018;-61
2023/06/11 23:51:19;;;;;;;3.83;1.90;;;;;;;;;;12979268;19;20575;-62
2023/06/11 23:55:41;;;;;;;2.08;1.58;;;;;;;;;;12979071;19;20021;-62
